« 三沢基地航空祭【展示編】 三沢飛行場 2016/9/11 sun | トップページ | 第九管区海上保安本部総合訓練2016 新潟市 2016/9/18 sun »

2016/09/19

’16航空祭inKOMATSU【B.I.編】 小松飛行場 2016/9/19 mon

昨日から激しい雨が降っていた北陸地方。早朝に起きたものの、この中でやるんか?と思いながら、豪雨の中小松にやって来ました。午前中は、雨が続いていたもののお昼頃からは、ほぼ止んだ模様。ただ、雲模様が・・ ブルーインパルスは、とりあえずショウが始まり、上がってからどうなるか?状態でのスタートです。

RJNK 190300Z 03018KT 9999 FEW004 BKN030 BKN040 21/17 Q1009

20160919_rjnk_bi00

豪雨のおかげか・・ 入場者数は当初予想の半分以下。昔の航空祭のようです。

20160919_rjnk_bi01

タクシーアウトがはじまり、今日がラストフライトの橋本一尉に注目です。

20160919_rjnk_bi02t465730

まずは、5番機が天候調査に上がります。

20160919_rjnk_bi03

お山を登るようです・・・

20160919_rjnk_bi04

なかなか低い雲が多いので、空いている場所を調査中

RJNK 190400Z 03017KT 9999 -SHRA FEW004 OVC030 22/17 Q1009

20160919_rjnk_bi05

背面は比較的良好な・・ と、いってもミニマム状態だねぇ

20160919_rjnk_bi06

風が弱くなっていたので、4機でのフォーメーションテイクオフ

20160919_rjnk_bi07

20160919_rjnk_bi08t265805

6番機が後ろに続きます。

20160919_rjnk_bi09

そのまま周回しながらジョインアップ

20160919_rjnk_bi10

海側は見えにくい状態

20160919_rjnk_bi11

周回の編隊航過で実施の模様

20160919_rjnk_bi12

1.ダーティ・ローパス

20160919_rjnk_bi13

空いている西側からの左周りレーストラックに

20160919_rjnk_bi14

20160919_rjnk_bi15

2.リーダーズ・ベネフィット・ローパス

20160919_rjnk_bi16

20160919_rjnk_bi17

20160919_rjnk_bi18

3.ポイント・スター・ローパス

20160919_rjnk_bi19

それでも北東象限は、雲が厚くなってきている

20160919_rjnk_bi20

20160919_rjnk_bi21

4.スワン・ローパス

20160919_rjnk_bi21u

雲模様からトラックを正面からに・・

20160919_rjnk_bi23

5.グランドクロス・ローパス

20160919_rjnk_bi24

20160919_rjnk_bi25

6.フェニックス・ローパス

20160919_rjnk_bi26

今日ラストフライトの6番機、橋本一尉のお別れの演目が追加され・・

20160919_rjnk_bi27

20160919_rjnk_bi28

20160919_rjnk_bi29

7.スロー・ロール

20160919_rjnk_bi30

さぁ、これがほんとのラスト

20160919_rjnk_bi31

一際綺麗にに周っています・・

20160919_rjnk_bi32

楽しいフライト、ありがとうございました。

20160919_rjnk_bi33

8.コーク・スクリュー

20160919_rjnk_bi34

そのまま、順次着陸となりました。

20160919_rjnk_bi35t485726

20160919_rjnk_bi36t485726

#1 46-5730 T-4 11SQ

20160919_rjnk_bi37t465728

#2 46-5728 T-4 11SQ

20160919_rjnk_bi38t065787

#3 06-5787 T-4 11SQ

20160919_rjnk_bi39t485726

タクシーウェイで6番機がそろうまで、待ちます

20160919_rjnk_bi40t465729

#4 46-5729 T-4 11SQ

20160919_rjnk_bi41t465730

#5 46-5730 T-4 11SQ

20160919_rjnk_bi42t265805

20160919_rjnk_bi43t265805

#6 26-5805 T-4 11SQ

20160919_rjnk_bi44t265805

みんさんから、お疲れの言葉・・ イエイエ

20160919_rjnk_bi45

ピタリと停止して、無事ミッション終了

予備機 

20160919_rjnk_46bit465731

46-5731 T-4 11SQ

|

« 三沢基地航空祭【展示編】 三沢飛行場 2016/9/11 sun | トップページ | 第九管区海上保安本部総合訓練2016 新潟市 2016/9/18 sun »

小松飛行場」カテゴリの記事

BI」カテゴリの記事

コメント

コメントを書く



(ウェブ上には掲載しません)


コメントは記事投稿者が公開するまで表示されません。



トラックバック


この記事へのトラックバック一覧です: ’16航空祭inKOMATSU【B.I.編】 小松飛行場 2016/9/19 mon:

« 三沢基地航空祭【展示編】 三沢飛行場 2016/9/11 sun | トップページ | 第九管区海上保安本部総合訓練2016 新潟市 2016/9/18 sun »